Time;durP1;ratioP1;P1;durP2;ratioP2;P2;SDS_P1;SDS_P2;PMS_P1;PMS_P2;Temp;Humidity;BMP_temperature;BMP_pressure;BME280_temperature;BME280_humidity;BME280_pressure;Samples;Min_cycle;Max_cycle;Signal;HPM_P1;HPM_P2
2022/05/20 00:01:22;;;;;;;3.40;2.40;;;20.10;99.90;;;;;;5207812;28;20211;-51
2022/05/20 00:03:53;;;;;;;2.43;2.23;;;20.10;99.90;;;;;;5207473;28;20180;-50
2022/05/20 00:06:23;;;;;;;4.20;2.33;;;20.10;99.90;;;;;;5194878;28;20200;-51
2022/05/20 00:08:54;;;;;;;2.17;2.03;;;20.00;99.90;;;;;;5201980;28;20548;-50
2022/05/20 00:11:25;;;;;;;2.30;2.10;;;20.00;99.90;;;;;;5199588;28;20302;-51
2022/05/20 00:13:56;;;;;;;4.80;2.83;;;19.90;99.90;;;;;;5216429;28;20238;-50
2022/05/20 00:16:28;;;;;;;2.20;2.10;;;19.90;99.90;;;;;;5196094;28;20560;-52
2022/05/20 00:18:59;;;;;;;3.53;2.80;;;19.80;99.90;;;;;;5202970;28;20869;-52
2022/05/20 00:21:30;;;;;;;3.17;2.20;;;19.80;99.90;;;;;;5199839;28;20470;-51
2022/05/20 00:24:01;;;;;;;4.00;2.50;;;19.80;99.90;;;;;;5203600;28;20532;-52
2022/05/20 00:26:32;;;;;;;2.20;2.10;;;19.70;99.90;;;;;;5196689;28;20447;-51
2022/05/20 00:29:02;;;;;;;2.33;2.20;;;19.70;99.90;;;;;;5200307;28;21862;-50
2022/05/20 00:31:33;;;;;;;2.87;2.20;;;19.70;99.90;;;;;;5207685;28;20191;-52
2022/05/20 00:34:03;;;;;;;2.47;2.37;;;19.70;99.90;;;;;;5204007;28;20279;-51
2022/05/20 00:36:34;;;;;;;4.53;2.40;;;19.60;99.90;;;;;;5188197;28;20215;-50
2022/05/20 00:39:05;;;;;;;2.93;2.60;;;19.60;99.90;;;;;;5197389;28;20632;-52
2022/05/20 00:41:35;;;;;;;2.03;1.93;;;19.50;99.90;;;;;;5197652;28;20256;-50
2022/05/20 00:44:06;;;;;;;5.80;2.50;;;19.50;99.90;;;;;;5205499;28;20188;-51
2022/05/20 00:46:36;;;;;;;2.80;2.60;;;19.40;99.90;;;;;;5218612;28;20203;-52
2022/05/20 00:49:15;;;;;;;2.47;2.27;;;19.30;99.90;;;;;;5201171;28;20195;-51
2022/05/20 00:51:50;;;;;;;2.73;2.53;;;19.30;99.90;;;;;;5200665;28;20191;-50
2022/05/20 00:54:24;;;;;;;10.40;2.60;;;19.20;99.90;;;;;;5203155;28;20464;-51
2022/05/20 00:57:03;;;;;;;4.50;2.30;;;19.20;99.90;;;;;;5209281;28;20461;-50
2022/05/20 00:59:37;;;;;;;3.63;2.50;;;19.10;99.90;;;;;;5224481;28;20545;-50
2022/05/20 01:02:16;;;;;;;2.40;2.30;;;19.10;99.90;;;;;;5204173;28;20889;-50
2022/05/20 01:04:48;;;;;;;2.93;2.67;;;19.00;99.90;;;;;;5192207;28;20501;-52
2022/05/20 01:07:19;;;;;;;2.70;2.60;;;18.90;99.90;;;;;;5202817;28;20885;-52
2022/05/20 01:09:49;;;;;;;2.70;2.60;;;19.10;99.90;;;;;;5201661;28;20463;-51
2022/05/20 01:12:21;;;;;;;2.90;2.80;;;18.90;99.90;;;;;;5227032;28;20619;-51
2022/05/20 01:14:52;;;;;;;3.90;2.50;;;18.80;99.90;;;;;;5204117;28;20676;-51
2022/05/20 01:17:23;;;;;;;3.20;3.00;;;18.80;99.90;;;;;;5194421;28;20450;-51
2022/05/20 01:19:55;;;;;;;2.90;2.73;;;18.80;99.90;;;;;;5198951;28;20438;-51
2022/05/20 01:22:53;;;;;;;4.13;2.77;;;18.70;99.90;;;;;;5212339;28;20203;-50
2022/05/20 01:25:25;;;;;;;3.13;2.90;;;18.70;99.90;;;;;;5196062;28;20475;-52
2022/05/20 01:27:57;;;;;;;3.60;3.40;;;18.60;99.90;;;;;;5198435;28;20498;-52
2022/05/20 01:30:30;;;;;;;3.43;3.13;;;18.60;99.90;;;;;;5199602;28;20430;-52
2022/05/20 01:33:06;;;;;;;5.00;3.00;;;18.50;99.90;;;;;;5206242;28;20789;-50
2022/05/20 01:35:41;;;;;;;4.43;3.50;;;18.50;99.90;;;;;;5193557;28;20491;-51
2022/05/20 01:38:12;;;;;;;4.97;2.50;;;18.40;99.90;;;;;;5203025;28;20453;-50
2022/05/20 01:41:00;;;;;;;4.17;2.97;;;18.40;99.90;;;;;;5200705;28;20998;-51
2022/05/20 01:43:40;;;;;;;4.93;3.47;;;18.30;99.90;;;;;;5202308;28;20450;-52
2022/05/20 01:46:33;;;;;;;4.60;4.30;;;18.20;99.90;;;;;;5204325;28;20476;-51
2022/05/20 01:49:23;;;;;;;4.73;4.27;;;18.20;99.90;;;;;;5216450;28;20430;-52
2022/05/20 01:52:03;;;;;;;3.77;3.57;;;18.10;99.90;;;;;;5199364;28;20858;-50
2022/05/20 01:54:56;;;;;;;4.00;3.70;;;18.10;99.90;;;;;;5204112;28;20447;-52
2022/05/20 01:57:50;;;;;;;5.63;4.13;;;18.10;99.90;;;;;;5196419;28;20455;-50
2022/05/20 02:00:32;;;;;;;6.30;5.17;;;18.00;99.90;;;;;;5196163;28;20780;-51
2022/05/20 02:03:08;;;;;;;4.20;4.00;;;17.90;99.90;;;;;;5196338;28;20441;-52
2022/05/20 02:05:50;;;;;;;5.43;5.00;;;17.90;99.90;;;;;;5199235;28;20500;-51
2022/05/20 02:08:32;;;;;;;4.77;4.47;;;17.90;99.90;;;;;;5197564;28;20840;-50
2022/05/20 02:11:14;;;;;;;5.23;4.60;;;18.00;99.90;;;;;;5204298;28;20434;-53
2022/05/20 02:13:50;;;;;;;5.50;5.10;;;18.00;99.90;;;;;;5217380;28;20533;-53
2022/05/20 02:16:41;;;;;;;7.83;5.20;;;18.00;99.90;;;;;;5200924;28;21079;-51
2022/05/20 02:19:40;;;;;;;6.77;6.17;;;18.10;99.90;;;;;;5200568;28;20864;-52
2022/05/20 02:22:17;;;;;;;6.67;6.07;;;18.00;99.90;;;;;;5188521;28;20986;-52
2022/05/20 02:24:49;;;;;;;5.90;5.50;;;18.00;99.90;;;;;;5199814;28;20430;-52
2022/05/20 02:27:28;;;;;;;9.40;6.90;;;18.10;99.90;;;;;;5192054;28;20461;-52
2022/05/20 02:30:08;;;;;;;8.03;7.33;;;18.00;99.90;;;;;;5191383;28;20504;-52
2022/05/20 02:32:58;;;;;;;6.77;5.63;;;18.00;99.90;;;;;;5202098;28;20456;-51
2022/05/20 02:35:31;;;;;;;6.40;5.80;;;18.00;99.90;;;;;;5198128;28;20438;-52
2022/05/20 02:38:16;;;;;;;7.07;6.00;;;18.00;99.90;;;;;;5200504;28;20566;-51
2022/05/20 02:40:49;;;;;;;6.50;5.90;;;18.10;99.90;;;;;;5207715;28;20467;-52
2022/05/20 02:43:22;;;;;;;7.70;6.27;;;18.10;99.90;;;;;;5217192;28;20438;-52
2022/05/20 02:45:53;;;;;;;7.70;6.30;;;18.10;99.90;;;;;;5210941;28;20453;-51
2022/05/20 02:48:24;;;;;;;7.07;6.50;;;18.10;99.90;;;;;;5204854;28;20434;-54
2022/05/20 02:50:55;;;;;;;8.93;7.17;;;18.00;99.90;;;;;;5190409;28;20431;-52
2022/05/20 02:53:25;;;;;;;7.43;6.70;;;17.90;99.90;;;;;;5196120;28;20446;-53
2022/05/20 02:55:56;;;;;;;7.67;6.93;;;17.90;99.90;;;;;;5199633;28;20223;-52
2022/05/20 03:04:11;;;;;;;11.70;8.00;;;17.90;99.90;;;;;;5201528;28;20438;-52
2022/05/20 03:06:50;;;;;;;14.03;6.83;;;17.90;99.90;;;;;;5197354;28;20466;-51
2022/05/20 03:09:23;;;;;;;9.57;8.17;;;17.90;99.90;;;;;;5205886;28;20422;-52
2022/05/20 03:11:54;;;;;;;8.47;7.57;;;17.90;99.90;;;;;;5204115;28;20561;-52
2022/05/20 03:14:25;;;;;;;11.47;7.17;;;17.90;99.90;;;;;;5210444;28;20516;-51
2022/05/20 03:16:59;;;;;;;8.23;7.37;;;17.90;99.90;;;;;;5196198;28;20333;-51
2022/05/20 03:19:31;;;;;;;6.67;6.00;;;18.00;99.90;;;;;;5213681;28;20182;-52
2022/05/20 03:22:03;;;;;;;7.10;6.40;;;18.00;99.90;;;;;;5213839;28;20469;-51
2022/05/20 03:24:34;;;;;;;9.83;7.63;;;18.00;99.90;;;;;;5203521;28;20542;-52
2022/05/20 03:27:05;;;;;;;8.03;6.33;;;18.00;99.90;;;;;;5201358;28;20759;-52
2022/05/20 03:29:36;;;;;;;6.23;5.63;;;18.00;99.90;;;;;;5201244;28;20926;-51
2022/05/20 03:32:07;;;;;;;5.87;5.53;;;18.00;99.90;;;;;;5206867;28;20449;-52
2022/05/20 03:34:40;;;;;;;7.80;6.37;;;18.10;99.90;;;;;;5201147;28;20188;-54
2022/05/20 03:37:10;;;;;;;5.27;4.80;;;18.10;99.90;;;;;;5198510;28;20473;-52
2022/05/20 03:39:41;;;;;;;5.80;5.40;;;18.20;99.90;;;;;;5204405;28;20544;-52
2022/05/20 03:42:12;;;;;;;6.87;6.17;;;18.10;99.90;;;;;;5200155;28;20212;-52
2022/05/20 03:44:42;;;;;;;6.63;6.10;;;18.20;99.90;;;;;;5199719;28;20298;-51
2022/05/20 03:47:13;;;;;;;6.47;5.97;;;18.20;99.90;;;;;;5208000;28;20208;-52
2022/05/20 03:49:43;;;;;;;9.60;6.07;;;18.20;99.90;;;;;;5212636;28;20281;-51
2022/05/20 03:52:17;;;;;;;6.53;5.97;;;18.20;99.90;;;;;;5204366;28;20265;-51
2022/05/20 03:54:48;;;;;;;11.33;7.50;;;18.30;99.90;;;;;;5201712;28;20629;-52
2022/05/20 03:57:18;;;;;;;6.83;6.23;;;18.30;99.90;;;;;;5196076;28;20450;-51
2022/05/20 03:59:49;;;;;;;6.53;6.03;;;18.30;99.90;;;;;;5192513;28;20199;-51
2022/05/20 04:02:20;;;;;;;9.10;7.10;;;18.20;99.90;;;;;;5197754;28;20211;-51
2022/05/20 04:04:52;;;;;;;7.90;6.17;;;18.30;99.90;;;;;;5205323;28;20970;-52
2022/05/20 04:07:25;;;;;;;6.97;6.27;;;18.30;99.90;;;;;;5206403;28;20257;-53
2022/05/20 04:09:56;;;;;;;7.83;6.57;;;18.30;99.90;;;;;;5203871;28;20533;-52
2022/05/20 04:12:46;;;;;;;6.97;6.27;;;18.40;99.90;;;;;;5199734;28;20535;-51
2022/05/20 04:15:16;;;;;;;7.07;6.47;;;18.40;99.90;;;;;;5203891;28;20194;-50
2022/05/20 04:17:47;;;;;;;10.43;7.33;;;18.40;99.90;;;;;;5204387;28;20457;-51
2022/05/20 04:20:17;;;;;;;7.40;6.57;;;18.40;99.90;;;;;;5201208;28;20214;-51
2022/05/20 04:22:48;;;;;;;8.00;7.30;;;18.40;99.90;;;;;;5199253;28;20208;-52
2022/05/20 04:25:18;;;;;;;7.40;6.73;;;18.40;99.90;;;;;;5200614;28;20180;-50
2022/05/20 04:27:49;;;;;;;7.20;6.60;;;18.40;99.90;;;;;;5204908;28;20215;-50
2022/05/20 04:30:20;;;;;;;7.43;6.80;;;18.40;99.90;;;;;;5205336;28;20194;-52
2022/05/20 04:32:50;;;;;;;8.00;7.20;;;18.40;99.90;;;;;;5190069;28;20188;-51
2022/05/20 04:35:21;;;;;;;7.87;7.07;;;18.40;99.90;;;;;;5197939;28;20184;-51
2022/05/20 04:37:51;;;;;;;7.90;7.20;;;18.50;99.90;;;;;;5206766;28;20641;-52
2022/05/20 04:40:22;;;;;;;8.17;7.17;;;18.50;99.90;;;;;;5198495;28;20177;-51
2022/05/20 04:48:30;;;;;;;11.53;7.93;;;18.50;99.90;;;;;;5200482;28;20515;-50
2022/05/20 04:51:01;;;;;;;10.60;8.10;;;18.60;99.90;;;;;;5197089;28;20522;-51
2022/05/20 04:56:20;;;;;;;9.17;8.27;;;18.70;99.90;;;;;;5193172;28;20720;-51
2022/05/20 04:58:51;;;;;;;9.90;9.00;;;18.80;99.90;;;;;;5205876;28;20438;-51
2022/05/20 05:01:21;;;;;;;9.53;8.50;;;18.90;99.90;;;;;;5195824;28;20238;-51
2022/05/20 05:03:52;;;;;;;8.83;8.03;;;19.00;99.90;;;;;;5183085;28;20179;-52
2022/05/20 05:06:23;;;;;;;9.10;7.90;;;19.20;99.90;;;;;;5194981;28;20206;-50
2022/05/20 05:08:53;;;;;;;8.10;7.33;;;19.30;99.90;;;;;;5201821;28;20278;-49
2022/05/20 05:11:24;;;;;;;11.30;8.83;;;19.40;99.90;;;;;;5199385;28;20267;-51
2022/05/20 05:13:54;;;;;;;12.60;9.77;;;19.50;99.90;;;;;;5180019;28;20192;-52
2022/05/20 05:16:25;;;;;;;9.63;8.63;;;19.60;99.90;;;;;;5191895;28;20628;-50
2022/05/20 05:18:55;;;;;;;8.67;7.77;;;19.50;99.90;;;;;;5200728;28;20183;-50
2022/05/20 05:21:26;;;;;;;12.07;7.73;;;19.60;99.90;;;;;;5194434;28;20585;-50
2022/05/20 05:24:00;;;;;;;10.97;8.47;;;19.80;99.90;;;;;;5195624;28;20278;-51
2022/05/20 05:26:34;;;;;;;9.40;7.10;;;20.00;99.90;;;;;;5213510;28;20211;-52
2022/05/20 05:29:05;;;;;;;8.00;7.30;;;20.30;99.90;;;;;;5200017;28;20439;-51
2022/05/20 05:31:35;;;;;;;8.37;7.57;;;20.70;99.90;;;;;;5201769;28;20442;-51
2022/05/20 05:34:10;;;;;;;8.80;7.90;;;20.70;99.90;;;;;;5207749;28;20203;-51
2022/05/20 05:36:40;;;;;;;7.37;6.83;;;20.60;99.90;;;;;;5202621;28;20210;-51
2022/05/20 05:39:11;;;;;;;8.70;7.80;;;20.70;99.90;;;;;;5191407;28;20473;-50
2022/05/20 05:41:42;;;;;;;9.53;8.67;;;20.80;99.90;;;;;;5193640;28;20228;-52
2022/05/20 05:44:12;;;;;;;12.60;8.47;;;21.00;99.90;;;;;;5199175;28;20173;-53
2022/05/20 05:46:43;;;;;;;9.40;8.50;;;21.10;99.90;;;;;;5206365;28;20683;-51
2022/05/20 05:49:16;;;;;;;10.97;7.90;;;21.30;99.90;;;;;;5210252;28;20222;-51
2022/05/20 05:51:47;;;;;;;9.30;8.33;;;21.60;99.90;;;;;;5202804;28;20195;-50
2022/05/20 05:54:18;;;;;;;11.43;9.23;;;21.80;99.90;;;;;;5193546;28;20500;-52
2022/05/20 05:56:49;;;;;;;12.60;8.60;;;21.90;99.90;;;;;;5219167;28;20469;-50
2022/05/20 05:59:19;;;;;;;11.13;9.93;;;21.80;99.90;;;;;;5191745;28;20652;-51
2022/05/20 06:01:50;;;;;;;10.53;7.80;;;21.70;99.90;;;;;;5194598;28;20250;-53
2022/05/20 06:04:20;;;;;;;11.80;8.03;;;21.70;99.90;;;;;;5204670;28;20201;-53
2022/05/20 06:06:51;;;;;;;9.60;8.60;;;21.70;99.90;;;;;;5198072;28;20256;-51
2022/05/20 06:09:22;;;;;;;13.17;9.10;;;21.70;99.90;;;;;;5193027;28;20192;-51
2022/05/20 06:11:53;;;;;;;9.70;8.70;;;22.00;99.90;;;;;;5211700;28;20215;-52
2022/05/20 06:14:23;;;;;;;11.13;8.53;;;21.80;99.90;;;;;;5198338;28;20489;-51
2022/05/20 06:16:54;;;;;;;11.93;8.43;;;21.40;99.90;;;;;;5191948;28;20236;-51
2022/05/20 06:19:24;;;;;;;14.03;8.57;;;21.10;99.90;;;;;;5197759;28;20183;-52
2022/05/20 06:21:55;;;;;;;14.13;8.30;;;20.80;99.90;;;;;;5195479;28;20212;-52
2022/05/20 06:24:25;;;;;;;11.70;7.20;;;20.80;99.90;;;;;;5196355;28;20316;-51
2022/05/20 06:26:56;;;;;;;15.20;8.70;;;20.90;99.90;;;;;;5198880;28;20208;-52
2022/05/20 06:29:27;;;;;;;11.53;8.37;;;20.90;99.90;;;;;;5190269;28;20751;-52
2022/05/20 06:31:57;;;;;;;9.00;7.87;;;20.90;99.90;;;;;;5186230;28;20187;-52
2022/05/20 06:39:48;;;;;;;9.10;7.70;;;20.80;99.90;;;;;;5199849;28;20217;-51
2022/05/20 06:40:16;;;;;;;8.70;7.90;;;21.00;99.90;;;;;;5195998;28;20497;-52
2022/05/20 06:42:46;;;;;;;9.47;7.53;;;21.80;99.90;;;;;;5202412;28;20521;-51
2022/05/20 06:45:17;;;;;;;8.50;7.70;;;23.50;99.90;;;;;;5218482;28;20438;-51
2022/05/20 06:47:47;;;;;;;9.07;7.77;;;24.40;94.60;;;;;;5198755;28;20206;-51
2022/05/20 06:50:21;;;;;;;8.43;7.57;;;24.10;93.60;;;;;;5199739;28;20529;-53
2022/05/20 06:52:51;;;;;;;7.07;6.47;;;24.10;93.30;;;;;;5201357;28;20194;-53
2022/05/20 06:55:22;;;;;;;8.00;7.13;;;24.30;92.20;;;;;;5196957;28;20447;-51
2022/05/20 06:57:52;;;;;;;6.63;5.93;;;24.00;92.40;;;;;;5195419;28;20208;-52
2022/05/20 07:00:23;;;;;;;12.90;6.37;;;24.60;90.80;;;;;;5190732;28;20198;-53
2022/05/20 07:02:54;;;;;;;7.23;6.63;;;26.30;81.00;;;;;;5208607;28;20207;-54
2022/05/20 07:05:27;;;;;;;6.33;5.73;;;27.90;66.30;;;;;;5191515;28;20172;-53
2022/05/20 07:08:00;;;;;;;5.10;4.60;;;30.40;55.50;;;;;;5193079;28;20199;-53
2022/05/20 07:10:30;;;;;;;4.80;4.50;;;32.00;47.90;;;;;;5190787;28;20423;-53
2022/05/20 07:13:01;;;;;;;6.77;5.73;;;31.80;45.90;;;;;;5194053;28;20485;-52
2022/05/20 07:15:32;;;;;;;5.60;5.30;;;30.30;47.80;;;;;;5185678;28;20173;-52
2022/05/20 07:18:03;;;;;;;6.73;5.50;;;28.20;49.90;;;;;;5196108;28;20207;-52
2022/05/20 07:20:34;;;;;;;6.33;5.37;;;26.60;53.60;;;;;;5189588;28;20292;-53
2022/05/20 07:23:04;;;;;;;6.63;5.17;;;26.20;56.30;;;;;;5190927;28;20180;-53
2022/05/20 07:25:37;;;;;;;3.73;3.40;;;27.80;53.10;;;;;;5192065;28;20180;-51
2022/05/20 07:28:07;;;;;;;7.73;4.17;;;28.90;50.80;;;;;;5189856;28;20203;-51
2022/05/20 07:30:38;;;;;;;6.00;4.40;;;28.90;50.00;;;;;;5194717;28;20422;-53
2022/05/20 07:33:09;;;;;;;5.27;4.77;;;29.30;48.30;;;;;;5202477;28;20231;-52
2022/05/20 07:35:39;;;;;;;5.00;4.50;;;31.30;46.10;;;;;;5194255;28;20911;-52
2022/05/20 07:38:10;;;;;;;4.20;2.97;;;33.20;41.80;;;;;;5160149;28;1069991;-52
2022/05/20 07:40:43;;;;;;;4.10;3.30;;;34.40;39.50;;;;;;5192175;28;20211;-53
2022/05/20 07:43:16;;;;;;;4.93;3.60;;;35.30;37.10;;;;;;5196071;28;20627;-52
2022/05/20 07:45:50;;;;;;;3.00;2.80;;;35.70;35.10;;;;;;5197626;28;20229;-54
2022/05/20 07:48:21;;;;;;;3.00;2.70;;;34.60;36.30;;;;;;5198193;28;20674;-52
2022/05/20 07:50:56;;;;;;;4.17;3.63;;;33.80;37.40;;;;;;5197736;28;20187;-53
2022/05/20 07:53:36;;;;;;;4.50;4.10;;;33.90;36.60;;;;;;5203656;28;20187;-53
2022/05/20 07:56:13;;;;;;;10.07;6.10;;;34.40;35.80;;;;;;5200024;28;20211;-51
2022/05/20 07:59:11;;;;;;;8.53;3.27;;;33.90;36.40;;;;;;5189328;28;20207;-53
2022/05/20 08:01:46;;;;;;;13.07;3.40;;;33.90;35.60;;;;;;5204729;28;20218;-53
2022/05/20 08:07:18;;;;;;;4.10;3.20;;;32.70;36.50;;;;;;5194840;28;20219;-52
2022/05/20 08:09:49;;;;;;;4.03;3.77;;;32.20;38.30;;;;;;5187875;28;20254;-53
2022/05/20 08:12:20;;;;;;;5.40;4.07;;;32.40;36.30;;;;;;5193583;28;20610;-52
2022/05/20 08:14:51;;;;;;;8.33;3.23;;;31.70;38.30;;;;;;5194937;28;20195;-53
2022/05/20 08:17:27;;;;;;;3.20;3.10;;;32.10;38.20;;;;;;5198770;28;20458;-53
2022/05/20 08:19:57;;;;;;;4.27;2.97;;;32.30;36.60;;;;;;5199607;28;20206;-52
2022/05/20 08:22:28;;;;;;;3.70;3.40;;;33.10;36.20;;;;;;5198522;28;20570;-53
2022/05/20 08:24:58;;;;;;;2.97;2.80;;;34.10;34.70;;;;;;5201873;28;20584;-53
2022/05/20 08:27:31;;;;;;;3.10;2.90;;;34.30;34.20;;;;;;5195067;28;20199;-52
2022/05/20 08:30:11;;;;;;;3.50;3.20;;;32.90;35.50;;;;;;5196929;28;20636;-53
2022/05/20 08:32:43;;;;;;;3.93;2.87;;;31.10;38.10;;;;;;5194406;28;20439;-54
2022/05/20 08:35:14;;;;;;;5.10;2.37;;;30.90;39.10;;;;;;5203828;28;20434;-54
2022/05/20 08:37:46;;;;;;;5.43;3.50;;;31.30;38.00;;;;;;5198453;28;20474;-52
2022/05/20 08:40:25;;;;;;;3.23;3.03;;;31.40;37.50;;;;;;5197627;28;20207;-51
2022/05/20 08:42:58;;;;;;;2.47;2.37;;;31.50;37.20;;;;;;5196497;28;20961;-54
2022/05/20 08:45:31;;;;;;;7.50;3.00;;;30.90;38.00;;;;;;5199859;28;20469;-54
2022/05/20 08:48:04;;;;;;;5.97;2.87;;;30.50;38.80;;;;;;5201137;28;20876;-53
2022/05/20 08:50:44;;;;;;;7.20;2.97;;;29.70;41.00;;;;;;5199892;28;20496;-54
2022/05/20 08:53:23;;;;;;;3.60;2.60;;;28.60;42.00;;;;;;5193106;28;20504;-57
2022/05/20 08:55:58;;;;;;;3.30;3.07;;;27.10;44.60;;;;;;5200772;28;20450;-53
2022/05/20 08:58:29;;;;;;;6.13;4.37;;;25.40;46.80;;;;;;5192497;28;20435;-54
2022/05/20 09:00:59;;;;;;;3.20;2.90;;;24.90;49.00;;;;;;5200290;28;20493;-53
2022/05/20 09:03:30;;;;;;;2.63;2.40;;;24.60;49.40;;;;;;5198082;28;20523;-53
2022/05/20 09:06:09;;;;;;;3.53;2.90;;;24.70;49.60;;;;;;5196121;28;20200;-53
2022/05/20 09:08:40;;;;;;;3.73;2.90;;;24.70;49.20;;;;;;5198415;28;20809;-52
2022/05/20 09:11:15;;;;;;;4.03;2.73;;;24.50;49.20;;;;;;5202574;28;20440;-52
2022/05/20 09:16:35;;;;;;;4.83;2.33;;;24.70;49.60;;;;;;5193896;28;20974;-53
2022/05/20 09:19:08;;;;;;;3.93;2.67;;;24.70;48.70;;;;;;5198342;28;20434;-52
2022/05/20 09:21:47;;;;;;;3.60;2.60;;;24.50;48.50;;;;;;5195978;28;20869;-53
2022/05/20 09:24:20;;;;;;;7.33;2.90;;;24.40;48.80;;;;;;5214132;28;20770;-52
2022/05/20 09:27:01;;;;;;;2.80;2.40;;;24.60;49.30;;;;;;5203663;28;20469;-52
2022/05/20 09:29:37;;;;;;;2.90;2.70;;;24.40;49.90;;;;;;5193082;28;20431;-53
2022/05/20 09:32:34;;;;;;;4.10;2.53;;;24.30;50.20;;;;;;5193719;28;20935;-53
2022/05/20 09:35:33;;;;;;;2.20;2.10;;;24.10;50.70;;;;;;5196418;28;20517;-53
2022/05/20 09:38:10;;;;;;;5.57;2.97;;;24.30;49.80;;;;;;5190224;28;20487;-53
2022/05/20 09:40:47;;;;;;;3.23;2.93;;;24.60;48.90;;;;;;5200737;28;20867;-51
2022/05/20 09:43:23;;;;;;;3.57;2.37;;;24.50;48.30;;;;;;5195349;28;20454;-52
2022/05/20 09:45:58;;;;;;;2.83;2.63;;;24.40;49.60;;;;;;5203203;28;20434;-51
2022/05/20 09:48:45;;;;;;;3.17;2.77;;;24.10;49.40;;;;;;5202221;28;20531;-51
2022/05/20 09:51:19;;;;;;;2.70;2.50;;;24.10;50.10;;;;;;5195742;28;20442;-52
2022/05/20 09:54:24;;;;;;;6.00;3.60;;;24.50;49.60;;;;;;5200897;28;20546;-52
2022/05/20 09:56:59;;;;;;;10.30;3.43;;;24.60;49.20;;;;;;5192549;28;20461;-51
2022/05/20 09:59:37;;;;;;;2.40;2.30;;;24.70;49.30;;;;;;5205821;28;20434;-51
2022/05/20 10:02:22;;;;;;;3.40;3.10;;;24.70;49.00;;;;;;5197477;28;20998;-55
2022/05/20 10:05:20;;;;;;;6.57;2.53;;;24.70;48.60;;;;;;5187395;28;20435;-52
2022/05/20 10:07:54;;;;;;;2.83;1.77;;;24.80;47.70;;;;;;5190327;28;20456;-54
2022/05/20 10:10:40;;;;;;;1.93;1.73;;;24.90;46.30;;;;;;5193960;28;20430;-53
2022/05/20 10:13:27;;;;;;;3.67;2.90;;;24.90;46.70;;;;;;5196280;28;20443;-51
2022/05/20 10:16:26;;;;;;;6.70;4.10;;;24.60;46.20;;;;;;5193443;28;20544;-51
2022/05/20 10:19:31;;;;;;;7.43;5.60;;;24.30;47.00;;;;;;5195405;28;21230;-53
2022/05/20 10:22:24;;;;;;;7.67;5.53;;;24.30;47.00;;;;;;5197013;28;21000;-53
2022/05/20 10:25:12;;;;;;;8.87;5.83;;;24.20;47.50;;;;;;5198815;28;20832;-51
2022/05/20 10:28:06;;;;;;;9.90;7.27;;;24.10;47.20;;;;;;5193118;28;20494;-52
2022/05/20 10:33:42;;;;;;;3.00;2.90;;;23.70;47.20;;;;;;5193590;28;20783;-53
2022/05/20 10:36:33;;;;;;;4.37;2.80;;;23.70;47.20;;;;;;5195447;28;20465;-52
2022/05/20 10:39:53;;;;;;;5.23;4.73;;;24.00;47.60;;;;;;5195383;28;20198;-52
2022/05/20 10:42:42;;;;;;;9.20;3.77;;;24.10;46.40;;;;;;5124611;28;20465;-53
2022/05/20 10:48:40;;;;;;;2.03;1.93;;;24.20;46.00;;;;;;5188724;28;20969;-53
2022/05/20 10:51:38;;;;;;;13.53;2.60;;;24.40;46.50;;;;;;5196450;28;20447;-51
2022/05/20 10:54:32;;;;;;;3.10;2.07;;;24.50;44.40;;;;;;5190194;28;20525;-55
2022/05/20 10:57:21;;;;;;;1.90;1.90;;;24.60;44.50;;;;;;5214588;28;20465;-53
2022/05/20 10:59:59;;;;;;;2.10;2.10;;;24.50;44.20;;;;;;5202158;28;20496;-52
2022/05/20 11:03:00;;;;;;;2.70;2.50;;;24.50;45.20;;;;;;5206667;28;20828;-54
2022/05/20 11:05:38;;;;;;;2.20;2.10;;;24.50;44.90;;;;;;5209251;28;20425;-51
2022/05/20 11:08:29;;;;;;;3.10;2.27;;;24.60;43.50;;;;;;5206485;28;20458;-51
2022/05/20 11:11:13;;;;;;;4.73;2.00;;;24.50;42.40;;;;;;5206109;28;20443;-51
2022/05/20 11:14:00;;;;;;;2.10;2.03;;;24.20;42.60;;;;;;5211149;28;20430;-52
2022/05/20 11:16:47;;;;;;;1.67;1.60;;;24.00;42.60;;;;;;5208857;28;20457;-53
2022/05/20 11:19:45;;;;;;;6.00;1.87;;;23.90;42.40;;;;;;5211768;28;20529;-53
2022/05/20 11:22:52;;;;;;;1.77;1.77;;;23.80;42.50;;;;;;5208535;28;20561;-52
2022/05/20 11:25:57;;;;;;;3.33;2.40;;;23.90;44.50;;;;;;5193588;28;20435;-52
2022/05/20 11:28:34;;;;;;;1.70;1.60;;;24.10;44.80;;;;;;5211816;28;20454;-52
2022/05/20 11:31:32;;;;;;;2.60;2.40;;;24.30;44.50;;;;;;5209455;28;20441;-53
2022/05/20 11:34:26;;;;;;;2.60;2.13;;;24.30;43.80;;;;;;5199841;28;20442;-52
2022/05/20 11:37:24;;;;;;;2.43;2.33;;;24.40;44.40;;;;;;5171440;28;20599;-53
2022/05/20 11:40:17;;;;;;;3.80;2.40;;;24.60;44.50;;;;;;5206755;28;20442;-53
2022/05/20 11:43:13;;;;;;;1.37;1.37;;;24.50;43.90;;;;;;5216389;28;20469;-51
2022/05/20 11:46:20;;;;;;;8.00;3.07;;;24.40;43.20;;;;;;5199767;28;20430;-54
2022/05/20 11:49:20;;;;;;;3.57;3.23;;;24.50;44.60;;;;;;5182902;28;20950;-55
2022/05/20 11:52:25;;;;;;;2.13;1.97;;;24.60;45.60;;;;;;5202605;28;20449;-56
2022/05/20 11:55:07;;;;;;;4.60;2.17;;;24.80;45.60;;;;;;5199570;28;20517;-53
2022/05/20 11:57:43;;;;;;;15.63;2.00;;;24.90;45.80;;;;;;5199125;28;20457;-53
2022/05/20 12:00:19;;;;;;;1.87;1.77;;;24.90;43.90;;;;;;5192629;28;20430;-52
2022/05/20 12:02:59;;;;;;;2.20;1.90;;;24.70;44.50;;;;;;5201335;28;20998;-53
2022/05/20 12:05:35;;;;;;;2.20;2.10;;;24.50;45.20;;;;;;5197791;28;20502;-52
2022/05/20 12:08:06;;;;;;;3.87;3.67;;;24.40;46.10;;;;;;5197231;28;20985;-52
2022/05/20 12:10:44;;;;;;;11.73;5.67;;;24.40;46.90;;;;;;5195818;28;20446;-54
2022/05/20 12:13:24;;;;;;;13.53;9.30;;;24.50;47.10;;;;;;5202372;28;20953;-52
2022/05/20 12:16:10;;;;;;;2.77;2.10;;;24.60;47.20;;;;;;5192439;28;20570;-51
2022/05/20 12:24:53;;;;;;;4.53;4.23;;;24.60;46.90;;;;;;5191975;28;20461;-52
2022/05/20 12:27:24;;;;;;;2.40;2.20;;;24.60;47.00;;;;;;5213917;28;20458;-56
2022/05/20 12:30:17;;;;;;;7.73;2.50;;;24.50;47.00;;;;;;5215143;28;20731;-54
2022/05/20 12:32:52;;;;;;;4.30;2.40;;;24.50;47.40;;;;;;5196608;28;20649;-52
2022/05/20 12:35:30;;;;;;;2.60;2.40;;;24.70;47.00;;;;;;5200378;28;20520;-52
2022/05/20 12:38:20;;;;;;;4.00;2.23;;;25.00;45.50;;;;;;5195903;28;20482;-51
2022/05/20 12:40:54;;;;;;;3.30;3.00;;;25.20;42.70;;;;;;5192028;28;20772;-50
2022/05/20 12:43:50;;;;;;;2.10;2.00;;;25.20;43.20;;;;;;5183807;28;20980;-52
2022/05/20 12:46:59;;;;;;;1.53;1.43;;;25.40;43.80;;;;;;5196038;28;20457;-53
2022/05/20 12:49:48;;;;;;;2.17;1.77;;;25.60;42.00;;;;;;5198235;28;20442;-52
2022/05/20 12:52:21;;;;;;;10.13;5.47;;;25.60;41.40;;;;;;5196521;28;20986;-52
2022/05/20 12:54:57;;;;;;;10.67;4.10;;;25.60;40.90;;;;;;5192540;28;20434;-52
2022/05/20 12:57:36;;;;;;;3.10;2.87;;;25.60;40.70;;;;;;5192456;28;20458;-53
2022/05/20 13:00:12;;;;;;;2.93;1.83;;;25.70;40.20;;;;;;5195596;28;20429;-51
2022/05/20 13:02:57;;;;;;;5.57;3.07;;;25.70;39.70;;;;;;5191827;28;20479;-53
2022/05/20 13:05:33;;;;;;;2.20;2.10;;;25.70;39.80;;;;;;5195407;28;20442;-52
2022/05/20 13:08:10;;;;;;;2.10;1.43;;;25.80;40.10;;;;;;5190047;28;20842;-52
2022/05/20 13:10:42;;;;;;;1.50;1.40;;;25.90;39.60;;;;;;5197235;28;20446;-52
2022/05/20 13:13:16;;;;;;;1.33;1.20;;;26.10;40.50;;;;;;5196277;28;20441;-51
2022/05/20 13:15:50;;;;;;;7.50;1.30;;;26.20;40.80;;;;;;5188711;28;20906;-51
2022/05/20 13:18:32;;;;;;;2.33;2.23;;;26.60;37.60;;;;;;5188683;28;20951;-52
2022/05/20 13:21:07;;;;;;;2.00;1.80;;;26.30;38.00;;;;;;5194226;28;20943;-51
2022/05/20 13:23:40;;;;;;;3.27;1.83;;;26.30;38.40;;;;;;5201631;28;20427;-52
2022/05/20 13:26:29;;;;;;;1.30;1.30;;;26.40;38.10;;;;;;5191050;28;20961;-52
2022/05/20 13:29:09;;;;;;;2.20;2.00;;;26.70;38.80;;;;;;5189506;28;20490;-52
2022/05/20 13:31:40;;;;;;;2.20;1.73;;;26.80;38.70;;;;;;5192143;28;20438;-52
2022/05/20 13:34:12;;;;;;;1.53;1.30;;;26.80;38.60;;;;;;5195516;28;20891;-54
2022/05/20 13:36:48;;;;;;;6.30;4.60;;;26.70;38.10;;;;;;5188039;28;20473;-52
2022/05/20 13:39:22;;;;;;;2.27;2.27;;;26.30;38.30;;;;;;5197385;28;20503;-52
2022/05/20 13:41:54;;;;;;;9.47;1.87;;;26.40;38.90;;;;;;5200655;28;20465;-52
2022/05/20 13:44:25;;;;;;;2.00;1.90;;;26.60;37.90;;;;;;5191457;28;20447;-52
2022/05/20 13:49:51;;;;;;;1.80;1.27;;;26.60;35.20;;;;;;5193360;28;20494;-52
2022/05/20 13:52:23;;;;;;;1.57;1.23;;;26.60;35.50;;;;;;5200784;28;20962;-53
2022/05/20 13:55:04;;;;;;;3.50;1.57;;;26.70;34.20;;;;;;5195781;28;20499;-54
2022/05/20 13:57:46;;;;;;;2.87;1.50;;;26.50;34.20;;;;;;5192241;28;20461;-52
2022/05/20 14:00:24;;;;;;;14.10;8.60;;;26.20;34.90;;;;;;5188601;28;20447;-54
2022/05/20 14:03:12;;;;;;;12.27;7.33;;;26.30;35.40;;;;;;5185056;28;20529;-52
2022/05/20 14:05:58;;;;;;;4.57;3.30;;;26.10;35.50;;;;;;5202418;28;20443;-56
2022/05/20 14:08:31;;;;;;;3.10;2.77;;;26.20;35.90;;;;;;5195037;28;20449;-55
2022/05/20 14:11:05;;;;;;;4.10;3.67;;;26.30;35.80;;;;;;5196822;28;20432;-53
2022/05/20 14:13:38;;;;;;;2.23;2.13;;;26.40;36.40;;;;;;5197920;28;20442;-54